sensor_id;sensor_type;location;lat;lon;timestamp;temperature;humidity
18083;DHT22;9168;51.194;6.840;2022-07-23T00:01:42;18.20;99.90
18083;DHT22;9168;51.194;6.840;2022-07-23T00:04:09;18.20;99.90
18083;DHT22;9168;51.194;6.840;2022-07-23T00:06:36;18.20;99.90
18083;DHT22;9168;51.194;6.840;2022-07-23T00:09:05;18.10;99.90
18083;DHT22;9168;51.194;6.840;2022-07-23T00:11:32;18.10;99.90
18083;DHT22;9168;51.194;6.840;2022-07-23T00:13:59;18.10;99.90
18083;DHT22;9168;51.194;6.840;2022-07-23T00:16:27;18.10;99.90
18083;DHT22;9168;51.194;6.840;2022-07-23T00:18:56;18.10;99.90
18083;DHT22;9168;51.194;6.840;2022-07-23T00:21:22;18.00;99.90
18083;DHT22;9168;51.194;6.840;2022-07-23T00:23:49;18.00;99.90
18083;DHT22;9168;51.194;6.840;2022-07-23T00:26:16;18.00;99.90
18083;DHT22;9168;51.194;6.840;2022-07-23T00:28:43;18.00;99.90
18083;DHT22;9168;51.194;6.840;2022-07-23T00:31:10;18.00;99.90
18083;DHT22;9168;51.194;6.840;2022-07-23T00:33:37;17.90;99.90
18083;DHT22;9168;51.194;6.840;2022-07-23T00:36:06;17.90;99.90
18083;DHT22;9168;51.194;6.840;2022-07-23T00:38:33;17.90;99.90
18083;DHT22;9168;51.194;6.840;2022-07-23T00:41:00;17.90;99.90
18083;DHT22;9168;51.194;6.840;2022-07-23T00:43:27;17.90;99.90
18083;DHT22;9168;51.194;6.840;2022-07-23T00:45:53;17.90;99.90
18083;DHT22;9168;51.194;6.840;2022-07-23T00:48:20;17.90;99.90
18083;DHT22;9168;51.194;6.840;2022-07-23T00:50:47;17.80;99.90
18083;DHT22;9168;51.194;6.840;2022-07-23T00:53:16;17.80;99.90
18083;DHT22;9168;51.194;6.840;2022-07-23T00:55:43;17.80;99.90
18083;DHT22;9168;51.194;6.840;2022-07-23T00:58:11;17.80;99.90
18083;DHT22;9168;51.194;6.840;2022-07-23T01:00:39;17.80;99.90
18083;DHT22;9168;51.194;6.840;2022-07-23T01:03:06;17.80;99.90
18083;DHT22;9168;51.194;6.840;2022-07-23T01:05:33;17.80;99.90
18083;DHT22;9168;51.194;6.840;2022-07-23T01:08:00;17.70;99.90
18083;DHT22;9168;51.194;6.840;2022-07-23T01:10:28;17.70;99.90
18083;DHT22;9168;51.194;6.840;2022-07-23T01:12:58;17.80;99.90
18083;DHT22;9168;51.194;6.840;2022-07-23T01:15:26;17.70;99.90
18083;DHT22;9168;51.194;6.840;2022-07-23T01:17:52;17.70;99.90
18083;DHT22;9168;51.194;6.840;2022-07-23T01:20:20;17.70;99.90
18083;DHT22;9168;51.194;6.840;2022-07-23T01:22:49;17.70;99.90
18083;DHT22;9168;51.194;6.840;2022-07-23T01:25:15;17.70;99.90
18083;DHT22;9168;51.194;6.840;2022-07-23T01:27:42;17.70;99.90
18083;DHT22;9168;51.194;6.840;2022-07-23T01:30:10;17.70;99.90
18083;DHT22;9168;51.194;6.840;2022-07-23T01:32:37;17.60;99.90
18083;DHT22;9168;51.194;6.840;2022-07-23T01:35:05;17.60;99.90
18083;DHT22;9168;51.194;6.840;2022-07-23T01:37:33;17.60;99.90
18083;DHT22;9168;51.194;6.840;2022-07-23T01:40:01;17.50;99.90
18083;DHT22;9168;51.194;6.840;2022-07-23T01:42:28;17.50;99.90
18083;DHT22;9168;51.194;6.840;2022-07-23T01:44:54;17.50;99.90
18083;DHT22;9168;51.194;6.840;2022-07-23T01:47:21;17.50;99.90
18083;DHT22;9168;51.194;6.840;2022-07-23T01:49:48;17.50;99.90
18083;DHT22;9168;51.194;6.840;2022-07-23T01:52:15;17.40;99.90
18083;DHT22;9168;51.194;6.840;2022-07-23T01:54:42;17.40;99.90
18083;DHT22;9168;51.194;6.840;2022-07-23T01:57:10;17.40;99.90
18083;DHT22;9168;51.194;6.840;2022-07-23T01:59:40;17.40;99.90
18083;DHT22;9168;51.194;6.840;2022-07-23T02:02:07;17.30;99.90
18083;DHT22;9168;51.194;6.840;2022-07-23T02:04:34;17.30;99.90
18083;DHT22;9168;51.194;6.840;2022-07-23T02:07:02;17.30;99.90
18083;DHT22;9168;51.194;6.840;2022-07-23T02:09:29;17.30;99.90
18083;DHT22;9168;51.194;6.840;2022-07-23T02:11:56;17.20;99.90
18083;DHT22;9168;51.194;6.840;2022-07-23T02:14:26;17.20;99.90
18083;DHT22;9168;51.194;6.840;2022-07-23T02:16:53;17.20;99.90
18083;DHT22;9168;51.194;6.840;2022-07-23T02:19:20;17.20;99.90
18083;DHT22;9168;51.194;6.840;2022-07-23T02:21:47;17.20;99.90
18083;DHT22;9168;51.194;6.840;2022-07-23T02:24:14;17.10;99.90
18083;DHT22;9168;51.194;6.840;2022-07-23T02:26:40;17.10;99.90
18083;DHT22;9168;51.194;6.840;2022-07-23T02:29:07;17.10;99.90
18083;DHT22;9168;51.194;6.840;2022-07-23T02:31:36;17.00;99.90
18083;DHT22;9168;51.194;6.840;2022-07-23T02:34:03;17.00;99.90
18083;DHT22;9168;51.194;6.840;2022-07-23T02:36:30;17.00;99.90
18083;DHT22;9168;51.194;6.840;2022-07-23T02:38:57;16.90;99.90
18083;DHT22;9168;51.194;6.840;2022-07-23T02:41:24;16.90;99.90
18083;DHT22;9168;51.194;6.840;2022-07-23T02:43:51;16.90;99.90
18083;DHT22;9168;51.194;6.840;2022-07-23T02:46:18;16.90;99.90
18083;DHT22;9168;51.194;6.840;2022-07-23T02:48:46;16.90;99.90
18083;DHT22;9168;51.194;6.840;2022-07-23T02:51:13;16.90;99.90
18083;DHT22;9168;51.194;6.840;2022-07-23T02:53:40;16.80;99.90
18083;DHT22;9168;51.194;6.840;2022-07-23T02:56:07;16.80;99.90
18083;DHT22;9168;51.194;6.840;2022-07-23T02:58:34;16.80;99.90
18083;DHT22;9168;51.194;6.840;2022-07-23T03:01:01;16.80;99.90
18083;DHT22;9168;51.194;6.840;2022-07-23T03:03:28;16.80;99.90
18083;DHT22;9168;51.194;6.840;2022-07-23T03:05:57;16.80;99.90
18083;DHT22;9168;51.194;6.840;2022-07-23T03:08:24;16.80;99.90
18083;DHT22;9168;51.194;6.840;2022-07-23T03:10:50;16.70;99.90
18083;DHT22;9168;51.194;6.840;2022-07-23T03:13:17;16.70;99.90
18083;DHT22;9168;51.194;6.840;2022-07-23T03:15:44;16.70;99.90
18083;DHT22;9168;51.194;6.840;2022-07-23T03:18:11;16.70;99.90
18083;DHT22;9168;51.194;6.840;2022-07-23T03:20:38;16.60;99.90
18083;DHT22;9168;51.194;6.840;2022-07-23T03:23:06;16.60;99.90
18083;DHT22;9168;51.194;6.840;2022-07-23T03:25:33;16.60;99.90
18083;DHT22;9168;51.194;6.840;2022-07-23T03:28:00;16.50;99.90
18083;DHT22;9168;51.194;6.840;2022-07-23T03:30:27;16.50;99.90
18083;DHT22;9168;51.194;6.840;2022-07-23T03:32:54;16.50;99.90
18083;DHT22;9168;51.194;6.840;2022-07-23T03:35:21;16.50;99.90
18083;DHT22;9168;51.194;6.840;2022-07-23T03:37:48;16.50;99.90
18083;DHT22;9168;51.194;6.840;2022-07-23T03:40:16;16.50;99.90
18083;DHT22;9168;51.194;6.840;2022-07-23T03:42:43;16.40;99.90
18083;DHT22;9168;51.194;6.840;2022-07-23T03:45:11;16.40;99.90
18083;DHT22;9168;51.194;6.840;2022-07-23T03:47:38;16.40;99.90
18083;DHT22;9168;51.194;6.840;2022-07-23T03:50:06;16.40;99.90
18083;DHT22;9168;51.194;6.840;2022-07-23T03:52:33;16.40;99.90
18083;DHT22;9168;51.194;6.840;2022-07-23T03:55:01;16.40;99.90
18083;DHT22;9168;51.194;6.840;2022-07-23T03:57:29;16.40;99.90
18083;DHT22;9168;51.194;6.840;2022-07-23T03:59:56;16.40;99.90
18083;DHT22;9168;51.194;6.840;2022-07-23T04:02:23;16.40;99.90
18083;DHT22;9168;51.194;6.840;2022-07-23T04:04:50;16.40;99.90
18083;DHT22;9168;51.194;6.840;2022-07-23T04:07:18;16.40;99.90
18083;DHT22;9168;51.194;6.840;2022-07-23T04:09:45;16.40;99.90
18083;DHT22;9168;51.194;6.840;2022-07-23T04:12:12;16.40;99.90
18083;DHT22;9168;51.194;6.840;2022-07-23T04:14:40;16.40;99.90
18083;DHT22;9168;51.194;6.840;2022-07-23T04:17:07;16.30;99.90
18083;DHT22;9168;51.194;6.840;2022-07-23T04:19:34;16.30;99.90
18083;DHT22;9168;51.194;6.840;2022-07-23T04:22:05;16.30;99.90
18083;DHT22;9168;51.194;6.840;2022-07-23T04:24:32;16.30;99.90
18083;DHT22;9168;51.194;6.840;2022-07-23T04:26:59;16.30;99.90
18083;DHT22;9168;51.194;6.840;2022-07-23T04:29:26;16.30;99.90
18083;DHT22;9168;51.194;6.840;2022-07-23T04:31:54;16.40;99.90
18083;DHT22;9168;51.194;6.840;2022-07-23T04:34:21;16.40;99.90
18083;DHT22;9168;51.194;6.840;2022-07-23T04:36:48;16.40;99.90
18083;DHT22;9168;51.194;6.840;2022-07-23T04:39:15;16.40;99.90
18083;DHT22;9168;51.194;6.840;2022-07-23T04:41:41;16.50;99.90
18083;DHT22;9168;51.194;6.840;2022-07-23T04:44:08;16.50;99.90
18083;DHT22;9168;51.194;6.840;2022-07-23T04:46:35;16.50;99.90
18083;DHT22;9168;51.194;6.840;2022-07-23T04:49:03;16.50;99.90
18083;DHT22;9168;51.194;6.840;2022-07-23T04:51:30;16.50;99.90
18083;DHT22;9168;51.194;6.840;2022-07-23T04:53:57;16.50;99.90
18083;DHT22;9168;51.194;6.840;2022-07-23T04:56:24;16.60;99.90
18083;DHT22;9168;51.194;6.840;2022-07-23T04:58:51;16.70;99.90
18083;DHT22;9168;51.194;6.840;2022-07-23T05:01:18;16.70;99.90
18083;DHT22;9168;51.194;6.840;2022-07-23T05:03:45;16.70;99.90
18083;DHT22;9168;51.194;6.840;2022-07-23T05:06:15;16.70;99.90
18083;DHT22;9168;51.194;6.840;2022-07-23T05:08:42;16.70;99.90
18083;DHT22;9168;51.194;6.840;2022-07-23T05:11:09;16.70;99.90
18083;DHT22;9168;51.194;6.840;2022-07-23T05:13:35;16.70;99.90
18083;DHT22;9168;51.194;6.840;2022-07-23T05:16:03;16.80;99.90
18083;DHT22;9168;51.194;6.840;2022-07-23T05:18:30;16.70;99.90
18083;DHT22;9168;51.194;6.840;2022-07-23T05:20:56;16.80;99.90
18083;DHT22;9168;51.194;6.840;2022-07-23T05:23:25;16.80;99.90
18083;DHT22;9168;51.194;6.840;2022-07-23T05:25:52;16.90;99.90
18083;DHT22;9168;51.194;6.840;2022-07-23T05:28:18;16.90;99.90
18083;DHT22;9168;51.194;6.840;2022-07-23T05:30:45;16.90;99.90
18083;DHT22;9168;51.194;6.840;2022-07-23T05:33:12;16.90;99.90
18083;DHT22;9168;51.194;6.840;2022-07-23T05:35:39;16.90;99.90
18083;DHT22;9168;51.194;6.840;2022-07-23T05:38:06;17.00;99.90
18083;DHT22;9168;51.194;6.840;2022-07-23T05:40:34;17.00;99.90
18083;DHT22;9168;51.194;6.840;2022-07-23T05:43:01;17.00;99.90
18083;DHT22;9168;51.194;6.840;2022-07-23T05:45:28;17.00;99.90
18083;DHT22;9168;51.194;6.840;2022-07-23T05:47:55;17.10;99.90
18083;DHT22;9168;51.194;6.840;2022-07-23T05:50:22;17.10;99.90
18083;DHT22;9168;51.194;6.840;2022-07-23T05:52:48;17.20;99.90
18083;DHT22;9168;51.194;6.840;2022-07-23T05:55:16;17.20;99.90
18083;DHT22;9168;51.194;6.840;2022-07-23T05:57:44;17.30;99.90
18083;DHT22;9168;51.194;6.840;2022-07-23T06:00:11;17.30;99.90
18083;DHT22;9168;51.194;6.840;2022-07-23T06:02:38;17.40;99.90
18083;DHT22;9168;51.194;6.840;2022-07-23T06:05:06;17.40;99.90
18083;DHT22;9168;51.194;6.840;2022-07-23T06:07:34;17.50;99.90
18083;DHT22;9168;51.194;6.840;2022-07-23T06:10:02;17.50;99.90
18083;DHT22;9168;51.194;6.840;2022-07-23T06:12:29;17.50;99.90
18083;DHT22;9168;51.194;6.840;2022-07-23T06:14:57;17.60;99.90
18083;DHT22;9168;51.194;6.840;2022-07-23T06:17:24;17.60;99.90
18083;DHT22;9168;51.194;6.840;2022-07-23T06:19:52;17.60;99.90
18083;DHT22;9168;51.194;6.840;2022-07-23T06:22:19;17.70;99.90
18083;DHT22;9168;51.194;6.840;2022-07-23T06:24:46;17.70;99.90
18083;DHT22;9168;51.194;6.840;2022-07-23T06:27:13;17.80;99.90
18083;DHT22;9168;51.194;6.840;2022-07-23T06:29:40;17.80;99.90
18083;DHT22;9168;51.194;6.840;2022-07-23T06:32:08;17.90;99.90
18083;DHT22;9168;51.194;6.840;2022-07-23T06:34:35;17.90;99.90
18083;DHT22;9168;51.194;6.840;2022-07-23T06:37:02;17.90;99.90
18083;DHT22;9168;51.194;6.840;2022-07-23T06:39:29;17.90;99.90
18083;DHT22;9168;51.194;6.840;2022-07-23T06:41:56;18.00;99.90
18083;DHT22;9168;51.194;6.840;2022-07-23T06:44:23;18.00;99.90
18083;DHT22;9168;51.194;6.840;2022-07-23T06:46:50;18.10;99.90
18083;DHT22;9168;51.194;6.840;2022-07-23T06:49:18;18.10;99.90
18083;DHT22;9168;51.194;6.840;2022-07-23T06:51:45;18.20;99.90
18083;DHT22;9168;51.194;6.840;2022-07-23T06:54:12;18.20;99.90
18083;DHT22;9168;51.194;6.840;2022-07-23T06:56:39;18.30;99.90
18083;DHT22;9168;51.194;6.840;2022-07-23T06:59:07;18.30;99.90
18083;DHT22;9168;51.194;6.840;2022-07-23T07:01:34;18.30;99.90
18083;DHT22;9168;51.194;6.840;2022-07-23T07:04:00;18.30;99.90
18083;DHT22;9168;51.194;6.840;2022-07-23T07:06:29;18.40;99.90
18083;DHT22;9168;51.194;6.840;2022-07-23T07:08:56;18.30;99.90
18083;DHT22;9168;51.194;6.840;2022-07-23T07:11:22;18.40;99.90
18083;DHT22;9168;51.194;6.840;2022-07-23T07:13:50;18.40;99.90
18083;DHT22;9168;51.194;6.840;2022-07-23T07:16:17;18.40;99.90
18083;DHT22;9168;51.194;6.840;2022-07-23T07:18:44;18.50;99.90
18083;DHT22;9168;51.194;6.840;2022-07-23T07:21:11;18.60;99.90
18083;DHT22;9168;51.194;6.840;2022-07-23T07:23:40;18.70;99.90
18083;DHT22;9168;51.194;6.840;2022-07-23T07:26:07;18.70;99.90
18083;DHT22;9168;51.194;6.840;2022-07-23T07:28:34;18.80;99.90
18083;DHT22;9168;51.194;6.840;2022-07-23T07:31:01;18.90;99.90
18083;DHT22;9168;51.194;6.840;2022-07-23T07:33:28;18.90;99.90
18083;DHT22;9168;51.194;6.840;2022-07-23T07:35:55;19.00;99.90
18083;DHT22;9168;51.194;6.840;2022-07-23T07:38:22;19.10;99.90
18083;DHT22;9168;51.194;6.840;2022-07-23T07:40:50;19.20;99.90
18083;DHT22;9168;51.194;6.840;2022-07-23T07:43:17;19.10;99.90
18083;DHT22;9168;51.194;6.840;2022-07-23T07:45:44;19.10;99.90
18083;DHT22;9168;51.194;6.840;2022-07-23T07:48:11;19.20;99.90
18083;DHT22;9168;51.194;6.840;2022-07-23T07:50:38;19.20;99.90
18083;DHT22;9168;51.194;6.840;2022-07-23T07:53:05;19.20;99.90
18083;DHT22;9168;51.194;6.840;2022-07-23T07:55:32;19.20;99.90
18083;DHT22;9168;51.194;6.840;2022-07-23T07:58:00;19.10;99.90
18083;DHT22;9168;51.194;6.840;2022-07-23T08:00:28;19.10;99.90
18083;DHT22;9168;51.194;6.840;2022-07-23T08:02:55;19.20;99.90
18083;DHT22;9168;51.194;6.840;2022-07-23T08:05:23;19.30;99.90
18083;DHT22;9168;51.194;6.840;2022-07-23T08:07:50;19.40;99.90
18083;DHT22;9168;51.194;6.840;2022-07-23T08:10:18;19.50;99.90
18083;DHT22;9168;51.194;6.840;2022-07-23T08:12:46;19.60;99.90
18083;DHT22;9168;51.194;6.840;2022-07-23T08:15:15;19.70;99.90
18083;DHT22;9168;51.194;6.840;2022-07-23T08:17:43;19.80;99.90
18083;DHT22;9168;51.194;6.840;2022-07-23T08:20:12;19.80;99.90
18083;DHT22;9168;51.194;6.840;2022-07-23T08:22:46;19.90;99.90
18083;DHT22;9168;51.194;6.840;2022-07-23T08:25:13;20.00;99.90
18083;DHT22;9168;51.194;6.840;2022-07-23T08:27:41;20.00;99.90
18083;DHT22;9168;51.194;6.840;2022-07-23T08:30:08;20.00;99.90
18083;DHT22;9168;51.194;6.840;2022-07-23T08:32:51;20.10;99.90
18083;DHT22;9168;51.194;6.840;2022-07-23T08:35:22;20.10;99.90
18083;DHT22;9168;51.194;6.840;2022-07-23T08:37:50;20.20;99.90
18083;DHT22;9168;51.194;6.840;2022-07-23T08:40:18;20.20;99.90
18083;DHT22;9168;51.194;6.840;2022-07-23T08:42:47;20.30;99.90
18083;DHT22;9168;51.194;6.840;2022-07-23T08:45:16;20.30;99.90
18083;DHT22;9168;51.194;6.840;2022-07-23T08:47:45;20.40;99.90
18083;DHT22;9168;51.194;6.840;2022-07-23T08:50:15;20.50;99.90
18083;DHT22;9168;51.194;6.840;2022-07-23T08:52:42;20.50;99.90
18083;DHT22;9168;51.194;6.840;2022-07-23T08:55:09;20.50;99.90
18083;DHT22;9168;51.194;6.840;2022-07-23T08:57:37;20.50;99.90
18083;DHT22;9168;51.194;6.840;2022-07-23T09:00:05;20.50;99.90
18083;DHT22;9168;51.194;6.840;2022-07-23T09:02:38;20.50;99.90
18083;DHT22;9168;51.194;6.840;2022-07-23T09:05:06;20.40;99.90
18083;DHT22;9168;51.194;6.840;2022-07-23T09:07:35;20.40;99.90
18083;DHT22;9168;51.194;6.840;2022-07-23T09:10:07;20.50;99.90
18083;DHT22;9168;51.194;6.840;2022-07-23T09:12:35;20.50;99.90
18083;DHT22;9168;51.194;6.840;2022-07-23T09:15:06;20.60;99.90
18083;DHT22;9168;51.194;6.840;2022-07-23T09:17:38;20.70;99.90
18083;DHT22;9168;51.194;6.840;2022-07-23T09:20:09;20.70;99.90
18083;DHT22;9168;51.194;6.840;2022-07-23T09:22:39;20.80;99.90
18083;DHT22;9168;51.194;6.840;2022-07-23T09:25:11;20.90;99.90
18083;DHT22;9168;51.194;6.840;2022-07-23T09:28:01;20.90;99.90
18083;DHT22;9168;51.194;6.840;2022-07-23T09:30:30;21.00;99.90
18083;DHT22;9168;51.194;6.840;2022-07-23T09:33:07;21.00;99.90
18083;DHT22;9168;51.194;6.840;2022-07-23T09:35:48;21.00;99.90
18083;DHT22;9168;51.194;6.840;2022-07-23T09:38:19;21.00;99.90
18083;DHT22;9168;51.194;6.840;2022-07-23T09:40:46;21.00;99.90
18083;DHT22;9168;51.194;6.840;2022-07-23T09:43:26;21.10;99.90
18083;DHT22;9168;51.194;6.840;2022-07-23T09:46:03;21.10;99.90
18083;DHT22;9168;51.194;6.840;2022-07-23T09:48:43;21.10;99.90
18083;DHT22;9168;51.194;6.840;2022-07-23T09:51:09;21.20;99.90
18083;DHT22;9168;51.194;6.840;2022-07-23T09:53:38;21.30;99.90
18083;DHT22;9168;51.194;6.840;2022-07-23T09:56:06;21.50;99.90
18083;DHT22;9168;51.194;6.840;2022-07-23T09:58:36;21.60;99.90
18083;DHT22;9168;51.194;6.840;2022-07-23T10:01:12;21.70;99.90
18083;DHT22;9168;51.194;6.840;2022-07-23T10:03:40;21.90;99.90
18083;DHT22;9168;51.194;6.840;2022-07-23T10:06:08;22.00;99.90
18083;DHT22;9168;51.194;6.840;2022-07-23T10:08:40;22.00;99.90
18083;DHT22;9168;51.194;6.840;2022-07-23T10:11:09;22.10;99.90
18083;DHT22;9168;51.194;6.840;2022-07-23T10:13:42;22.20;99.90
18083;DHT22;9168;51.194;6.840;2022-07-23T10:16:18;22.40;99.90
18083;DHT22;9168;51.194;6.840;2022-07-23T10:18:46;22.60;99.90
18083;DHT22;9168;51.194;6.840;2022-07-23T10:21:19;22.80;99.90
18083;DHT22;9168;51.194;6.840;2022-07-23T10:23:58;23.00;99.90
18083;DHT22;9168;51.194;6.840;2022-07-23T10:26:41;23.10;99.90
18083;DHT22;9168;51.194;6.840;2022-07-23T10:29:21;23.10;99.90
18083;DHT22;9168;51.194;6.840;2022-07-23T10:31:54;23.30;99.90
18083;DHT22;9168;51.194;6.840;2022-07-23T10:34:29;23.60;99.90
18083;DHT22;9168;51.194;6.840;2022-07-23T10:37:01;23.90;99.90
18083;DHT22;9168;51.194;6.840;2022-07-23T10:39:34;24.20;99.90
18083;DHT22;9168;51.194;6.840;2022-07-23T10:42:09;24.50;99.90
18083;DHT22;9168;51.194;6.840;2022-07-23T10:44:41;24.70;99.90
18083;DHT22;9168;51.194;6.840;2022-07-23T10:47:09;24.80;99.90
18083;DHT22;9168;51.194;6.840;2022-07-23T10:50:18;25.00;99.90
18083;DHT22;9168;51.194;6.840;2022-07-23T10:53:13;25.60;99.90
18083;DHT22;9168;51.194;6.840;2022-07-23T10:55:45;26.10;99.90
18083;DHT22;9168;51.194;6.840;2022-07-23T10:58:17;26.50;99.90
18083;DHT22;9168;51.194;6.840;2022-07-23T11:00:45;27.00;99.90
18083;DHT22;9168;51.194;6.840;2022-07-23T11:03:38;27.40;99.90
18083;DHT22;9168;51.194;6.840;2022-07-23T11:06:05;27.60;99.90
18083;DHT22;9168;51.194;6.840;2022-07-23T11:08:33;27.60;99.90
18083;DHT22;9168;51.194;6.840;2022-07-23T11:11:11;27.60;99.90
18083;DHT22;9168;51.194;6.840;2022-07-23T11:13:48;27.60;99.90
18083;DHT22;9168;51.194;6.840;2022-07-23T11:16:24;27.70;99.90
18083;DHT22;9168;51.194;6.840;2022-07-23T11:19:04;28.00;99.90
18083;DHT22;9168;51.194;6.840;2022-07-23T11:21:50;28.10;99.90
18083;DHT22;9168;51.194;6.840;2022-07-23T11:24:22;28.20;99.90
18083;DHT22;9168;51.194;6.840;2022-07-23T11:27:11;28.40;99.90
18083;DHT22;9168;51.194;6.840;2022-07-23T11:29:48;28.20;99.90
18083;DHT22;9168;51.194;6.840;2022-07-23T11:32:28;27.70;99.90
18083;DHT22;9168;51.194;6.840;2022-07-23T11:34:56;27.10;99.90
18083;DHT22;9168;51.194;6.840;2022-07-23T11:37:35;27.00;99.90
18083;DHT22;9168;51.194;6.840;2022-07-23T11:40:08;26.70;99.90
18083;DHT22;9168;51.194;6.840;2022-07-23T11:42:51;26.90;99.90
18083;DHT22;9168;51.194;6.840;2022-07-23T11:45:18;27.30;99.90
18083;DHT22;9168;51.194;6.840;2022-07-23T11:47:45;27.70;99.90
18083;DHT22;9168;51.194;6.840;2022-07-23T11:50:12;28.20;99.90
18083;DHT22;9168;51.194;6.840;2022-07-23T11:52:39;28.70;99.90
18083;DHT22;9168;51.194;6.840;2022-07-23T11:55:09;29.10;99.90
18083;DHT22;9168;51.194;6.840;2022-07-23T11:57:37;29.40;99.90
18083;DHT22;9168;51.194;6.840;2022-07-23T12:00:09;29.90;99.90
18083;DHT22;9168;51.194;6.840;2022-07-23T12:02:37;30.00;98.20
18083;DHT22;9168;51.194;6.840;2022-07-23T12:05:05;30.30;99.90
18083;DHT22;9168;51.194;6.840;2022-07-23T12:07:34;30.40;98.00
18083;DHT22;9168;51.194;6.840;2022-07-23T12:10:03;30.80;99.90
18083;DHT22;9168;51.194;6.840;2022-07-23T12:12:37;31.00;99.20
18083;DHT22;9168;51.194;6.840;2022-07-23T12:15:08;31.30;97.10
18083;DHT22;9168;51.194;6.840;2022-07-23T12:17:36;31.50;96.70
18083;DHT22;9168;51.194;6.840;2022-07-23T12:20:05;31.70;94.30
18083;DHT22;9168;51.194;6.840;2022-07-23T12:22:37;31.70;93.50
18083;DHT22;9168;51.194;6.840;2022-07-23T12:25:07;31.90;93.30
18083;DHT22;9168;51.194;6.840;2022-07-23T12:27:35;32.10;93.50
18083;DHT22;9168;51.194;6.840;2022-07-23T12:30:24;32.00;90.90
18083;DHT22;9168;51.194;6.840;2022-07-23T12:32:53;32.10;92.00
18083;DHT22;9168;51.194;6.840;2022-07-23T12:35:21;32.20;92.70
18083;DHT22;9168;51.194;6.840;2022-07-23T12:37:50;32.30;91.80
18083;DHT22;9168;51.194;6.840;2022-07-23T12:40:30;32.50;93.20
18083;DHT22;9168;51.194;6.840;2022-07-23T12:42:59;32.70;90.60
18083;DHT22;9168;51.194;6.840;2022-07-23T12:45:41;32.90;87.70
18083;DHT22;9168;51.194;6.840;2022-07-23T12:48:14;33.00;89.20
18083;DHT22;9168;51.194;6.840;2022-07-23T12:50:50;33.20;90.50
18083;DHT22;9168;51.194;6.840;2022-07-23T12:53:19;33.30;87.80
18083;DHT22;9168;51.194;6.840;2022-07-23T12:55:47;33.60;89.80
18083;DHT22;9168;51.194;6.840;2022-07-23T12:58:17;33.70;86.80
18083;DHT22;9168;51.194;6.840;2022-07-23T13:01:00;33.80;85.20
18083;DHT22;9168;51.194;6.840;2022-07-23T13:03:30;33.50;81.30
18083;DHT22;9168;51.194;6.840;2022-07-23T13:06:01;33.70;83.00
18083;DHT22;9168;51.194;6.840;2022-07-23T13:08:30;33.90;83.30
18083;DHT22;9168;51.194;6.840;2022-07-23T13:10:57;33.90;82.10
18083;DHT22;9168;51.194;6.840;2022-07-23T13:13:27;34.00;83.60
18083;DHT22;9168;51.194;6.840;2022-07-23T13:15:57;33.80;82.10
18083;DHT22;9168;51.194;6.840;2022-07-23T13:18:25;33.30;79.70
18083;DHT22;9168;51.194;6.840;2022-07-23T13:20:52;32.70;82.90
18083;DHT22;9168;51.194;6.840;2022-07-23T13:23:19;32.40;83.40
18083;DHT22;9168;51.194;6.840;2022-07-23T13:25:46;32.40;85.30
18083;DHT22;9168;51.194;6.840;2022-07-23T13:28:14;32.60;85.00
18083;DHT22;9168;51.194;6.840;2022-07-23T13:30:43;32.80;85.60
18083;DHT22;9168;51.194;6.840;2022-07-23T13:33:12;32.80;84.00
18083;DHT22;9168;51.194;6.840;2022-07-23T13:35:39;32.90;86.20
18083;DHT22;9168;51.194;6.840;2022-07-23T13:38:06;32.70;86.30
18083;DHT22;9168;51.194;6.840;2022-07-23T13:40:35;32.70;83.70
18083;DHT22;9168;51.194;6.840;2022-07-23T13:43:04;32.60;84.00
18083;DHT22;9168;51.194;6.840;2022-07-23T13:45:31;32.50;85.30
18083;DHT22;9168;51.194;6.840;2022-07-23T13:47:58;32.40;85.80
18083;DHT22;9168;51.194;6.840;2022-07-23T13:50:27;32.40;85.40
18083;DHT22;9168;51.194;6.840;2022-07-23T13:52:54;32.40;84.60
18083;DHT22;9168;51.194;6.840;2022-07-23T13:55:21;32.30;86.00
18083;DHT22;9168;51.194;6.840;2022-07-23T13:57:48;32.30;85.50
18083;DHT22;9168;51.194;6.840;2022-07-23T14:00:15;32.20;85.90
18083;DHT22;9168;51.194;6.840;2022-07-23T14:02:42;32.20;86.50
18083;DHT22;9168;51.194;6.840;2022-07-23T14:05:11;32.30;86.60
18083;DHT22;9168;51.194;6.840;2022-07-23T14:07:39;32.10;83.40
18083;DHT22;9168;51.194;6.840;2022-07-23T14:10:09;31.90;83.10
18083;DHT22;9168;51.194;6.840;2022-07-23T14:12:36;31.80;84.30
18083;DHT22;9168;51.194;6.840;2022-07-23T14:15:04;31.50;83.20
18083;DHT22;9168;51.194;6.840;2022-07-23T14:17:32;31.50;84.20
18083;DHT22;9168;51.194;6.840;2022-07-23T14:19:59;31.50;83.90
18083;DHT22;9168;51.194;6.840;2022-07-23T14:22:26;31.40;83.40
18083;DHT22;9168;51.194;6.840;2022-07-23T14:24:54;31.30;82.60
18083;DHT22;9168;51.194;6.840;2022-07-23T14:27:23;31.20;84.50
18083;DHT22;9168;51.194;6.840;2022-07-23T14:29:50;31.20;82.50
18083;DHT22;9168;51.194;6.840;2022-07-23T14:32:35;31.10;83.90
18083;DHT22;9168;51.194;6.840;2022-07-23T14:35:17;31.10;84.80
18083;DHT22;9168;51.194;6.840;2022-07-23T14:37:50;31.00;83.70
18083;DHT22;9168;51.194;6.840;2022-07-23T14:40:21;30.90;86.00
18083;DHT22;9168;51.194;6.840;2022-07-23T14:42:49;30.80;82.80
18083;DHT22;9168;51.194;6.840;2022-07-23T14:45:16;30.70;84.00
18083;DHT22;9168;51.194;6.840;2022-07-23T14:47:44;30.60;84.80
18083;DHT22;9168;51.194;6.840;2022-07-23T14:50:11;30.50;84.90
18083;DHT22;9168;51.194;6.840;2022-07-23T14:52:38;30.40;84.80
18083;DHT22;9168;51.194;6.840;2022-07-23T14:55:05;30.20;85.50
18083;DHT22;9168;51.194;6.840;2022-07-23T14:57:34;30.20;87.70
18083;DHT22;9168;51.194;6.840;2022-07-23T15:00:01;30.20;86.70
18083;DHT22;9168;51.194;6.840;2022-07-23T15:02:28;30.20;87.50
18083;DHT22;9168;51.194;6.840;2022-07-23T15:04:55;30.20;86.20
18083;DHT22;9168;51.194;6.840;2022-07-23T15:07:23;30.20;87.00
18083;DHT22;9168;51.194;6.840;2022-07-23T15:09:50;30.10;87.50
18083;DHT22;9168;51.194;6.840;2022-07-23T15:12:17;30.00;87.30
18083;DHT22;9168;51.194;6.840;2022-07-23T15:14:46;30.00;88.40
18083;DHT22;9168;51.194;6.840;2022-07-23T15:17:13;29.90;86.90
18083;DHT22;9168;51.194;6.840;2022-07-23T15:19:40;29.90;89.10
18083;DHT22;9168;51.194;6.840;2022-07-23T15:22:07;29.80;89.80
18083;DHT22;9168;51.194;6.840;2022-07-23T15:24:34;29.80;88.80
18083;DHT22;9168;51.194;6.840;2022-07-23T15:27:01;29.70;89.60
18083;DHT22;9168;51.194;6.840;2022-07-23T15:29:28;29.60;90.00
18083;DHT22;9168;51.194;6.840;2022-07-23T15:32:00;29.50;90.00
18083;DHT22;9168;51.194;6.840;2022-07-23T15:34:27;29.50;90.10
18083;DHT22;9168;51.194;6.840;2022-07-23T15:36:55;29.40;88.80
18083;DHT22;9168;51.194;6.840;2022-07-23T15:39:23;29.20;87.90
18083;DHT22;9168;51.194;6.840;2022-07-23T15:41:50;29.10;90.10
18083;DHT22;9168;51.194;6.840;2022-07-23T15:44:18;29.00;89.70
18083;DHT22;9168;51.194;6.840;2022-07-23T15:46:46;28.90;88.50
18083;DHT22;9168;51.194;6.840;2022-07-23T15:49:15;28.70;88.90
18083;DHT22;9168;51.194;6.840;2022-07-23T15:51:42;28.50;90.00
18083;DHT22;9168;51.194;6.840;2022-07-23T15:54:09;28.30;87.00
18083;DHT22;9168;51.194;6.840;2022-07-23T15:56:36;28.10;88.30